Time,TemperatureF,DewpointF,PressureIn,WindDirection,WindDirectionDegrees,WindSpeedMPH,WindSpeedGustMPH,Humidity,HourlyPrecipIn,Conditions,Clouds,dailyrainin,SoftwareType,DateUTC
2013-01-15 00:03:00,21.3,16.7,30.38,North,355,3.0,3.0,82,0.00,,,0.00,Wunderground v.1.13,2013-01-15 06:03:00,
2013-01-15 00:08:00,21.2,16.6,30.38,NNE,13,3.0,3.0,82,0.00,,,0.00,Wunderground v.1.13,2013-01-15 06:08:00,
2013-01-15 00:18:00,21.3,16.7,30.38,North,9,3.0,5.0,82,0.00,,,0.00,Wunderground v.1.13,2013-01-15 06:18:00,
2013-01-15 00:28:00,21.2,16.6,30.38,North,9,4.0,4.0,82,0.00,,,0.00,Wunderground v.1.13,2013-01-15 06:28:00,
2013-01-15 00:38:00,21.1,16.5,30.38,NE,37,3.0,3.0,82,0.00,,,0.00,Wunderground v.1.13,2013-01-15 06:38:00,
2013-01-15 00:43:00,21.2,16.6,30.38,North,355,4.0,5.0,82,0.00,,,0.00,Wunderground v.1.13,2013-01-15 06:43:00,
2013-01-15 00:53:00,21.1,16.5,30.38,North,9,4.0,4.0,82,0.00,,,0.00,Wunderground v.1.13,2013-01-15 06:53:00,
2013-01-15 00:58:00,21.1,16.5,30.37,North,360,4.0,6.0,82,0.00,,,0.00,Wunderground v.1.13,2013-01-15 06:58:00,
2013-01-15 01:08:00,21.2,16.8,30.38,North,360,4.0,5.0,83,0.00,,,0.00,Wunderground v.1.13,2013-01-15 07:08:00,
2013-01-15 01:13:00,21.1,16.7,30.38,North,360,4.0,4.0,83,0.00,,,0.00,Wunderground v.1.13,2013-01-15 07:13:00,
2013-01-15 01:23:00,21.0,16.6,30.38,North,350,4.0,5.0,83,0.00,,,0.00,Wunderground v.1.13,2013-01-15 07:23:00,
2013-01-15 01:28:00,21.0,16.6,30.38,North,10,3.0,6.0,83,0.00,,,0.00,Wunderground v.1.13,2013-01-15 07:28:00,
2013-01-15 01:38:00,20.8,16.5,30.38,North,9,4.0,4.0,83,0.00,,,0.00,Wunderground v.1.13,2013-01-15 07:38:00,
2013-01-15 01:48:00,20.8,16.5,30.38,NNE,22,4.0,4.0,83,0.00,,,0.00,Wunderground v.1.13,2013-01-15 07:48:00,
2013-01-15 01:53:00,20.7,16.4,30.37,NNE,19,3.0,4.0,83,0.00,,,0.00,Wunderground v.1.13,2013-01-15 07:53:00,
2013-01-15 02:03:00,20.6,16.3,30.37,North,355,4.0,5.0,83,0.00,,,0.00,Wunderground v.1.13,2013-01-15 08:03:00,
2013-01-15 02:08:00,20.6,16.3,30.37,North,355,4.0,4.0,83,0.00,,,0.00,Wunderground v.1.13,2013-01-15 08:08:00,
2013-01-15 02:18:00,20.6,16.3,30.37,North,360,4.0,4.0,83,0.00,,,0.00,Wunderground v.1.13,2013-01-15 08:18:00,
2013-01-15 02:28:00,20.5,16.2,30.37,NNE,28,3.0,3.0,83,0.00,,,0.00,Wunderground v.1.13,2013-01-15 08:28:00,
2013-01-15 02:33:00,20.4,16.1,30.37,NNW,348,4.0,4.0,83,0.00,,,0.00,Wunderground v.1.13,2013-01-15 08:33:00,
2013-01-15 02:43:00,20.4,16.1,30.37,North,5,4.0,4.0,83,0.00,,,0.00,Wunderground v.1.13,2013-01-15 08:43:00,
2013-01-15 02:53:00,20.4,16.1,30.36,North,360,3.0,5.0,83,0.00,,,0.00,Wunderground v.1.13,2013-01-15 08:53:00,
2013-01-15 02:58:00,20.3,16.0,30.36,North,9,4.0,4.0,83,0.00,,,0.00,Wunderground v.1.13,2013-01-15 08:58:00,
2013-01-15 03:08:00,20.3,16.2,30.36,North,5,4.0,4.0,84,0.00,,,0.00,Wunderground v.1.13,2013-01-15 09:08:00,
2013-01-15 03:18:00,20.3,16.2,30.35,NE,41,5.0,5.0,84,0.00,,,0.00,Wunderground v.1.13,2013-01-15 09:18:00,
2013-01-15 03:28:00,20.3,16.2,30.35,North,5,5.0,5.0,84,0.00,,,0.00,Wunderground v.1.13,2013-01-15 09:28:00,
2013-01-15 03:38:00,20.2,16.1,30.35,North,5,4.0,4.0,84,0.00,,,0.00,Wunderground v.1.13,2013-01-15 09:38:00,
2013-01-15 03:48:00,20.1,16.0,30.35,North,9,4.0,4.0,84,0.00,,,0.00,Wunderground v.1.13,2013-01-15 09:48:00,
2013-01-15 03:53:00,20.1,16.0,30.35,NNE,17,3.0,3.0,84,0.00,,,0.00,Wunderground v.1.13,2013-01-15 09:53:00,
2013-01-15 04:03:00,20.0,15.9,30.34,NNE,17,2.0,3.0,84,0.00,,,0.00,Wunderground v.1.13,2013-01-15 10:03:00,
2013-01-15 04:08:00,19.9,15.8,30.34,NNE,19,3.0,5.0,84,0.00,,,0.00,Wunderground v.1.13,2013-01-15 10:08:00,
2013-01-15 04:18:00,19.9,15.8,30.34,North,355,3.0,3.0,84,0.00,,,0.00,Wunderground v.1.13,2013-01-15 10:18:00,
2013-01-15 04:23:00,19.8,15.7,30.34,NNE,14,3.0,4.0,84,0.00,,,0.00,Wunderground v.1.13,2013-01-15 10:23:00,
2013-01-15 04:33:00,19.9,15.8,30.34,North,9,3.0,7.0,84,0.00,,,0.00,Wunderground v.1.13,2013-01-15 10:33:00,
2013-01-15 04:38:00,19.9,15.8,30.34,NNE,24,3.0,3.0,84,0.00,,,0.00,Wunderground v.1.13,2013-01-15 10:38:00,
2013-01-15 04:43:00,19.9,15.8,30.34,NNE,24,3.0,3.0,84,0.00,,,0.00,Wunderground v.1.13,2013-01-15 10:43:00,
2013-01-15 04:53:00,19.9,15.8,30.34,NNE,21,3.0,3.0,84,0.00,,,0.00,Wunderground v.1.13,2013-01-15 10:53:00,
2013-01-15 04:58:00,19.9,15.8,30.34,NNE,20,3.0,3.0,84,0.00,,,0.00,Wunderground v.1.13,2013-01-15 10:58:00,
2013-01-15 05:08:00,19.7,15.6,30.34,NNE,21,3.0,3.0,84,0.00,,,0.00,Wunderground v.1.13,2013-01-15 11:08:00,
2013-01-15 05:18:00,19.7,15.6,30.33,NNE,21,3.0,4.0,84,0.00,,,0.00,Wunderground v.1.13,2013-01-15 11:18:00,
2013-01-15 05:28:00,19.7,15.6,30.33,NNE,21,2.0,2.0,84,0.00,,,0.00,Wunderground v.1.13,2013-01-15 11:28:00,
2013-01-15 05:38:00,19.7,15.6,30.33,NNE,21,2.0,2.0,84,0.00,,,0.00,Wunderground v.1.13,2013-01-15 11:38:00,
2013-01-15 05:43:00,19.7,15.6,30.33,NNE,21,1.0,1.0,84,0.00,,,0.00,Wunderground v.1.13,2013-01-15 11:43:00,
2013-01-15 05:53:00,19.7,15.6,30.33,NNE,21,1.0,1.0,84,0.00,,,0.00,Wunderground v.1.13,2013-01-15 11:53:00,
2013-01-15 05:58:00,19.7,15.6,30.32,NNE,21,1.0,1.0,84,0.00,,,0.00,Wunderground v.1.13,2013-01-15 11:58:00,
2013-01-15 06:08:00,19.7,15.6,30.32,NNE,17,1.0,1.0,84,0.00,,,0.00,Wunderground v.1.13,2013-01-15 12:08:00,
2013-01-15 06:18:00,19.7,15.6,30.33,NE,36,2.0,2.0,84,0.00,,,0.00,Wunderground v.1.13,2013-01-15 12:18:00,
2013-01-15 06:28:00,19.7,15.6,30.32,NE,36,2.0,2.0,84,0.00,,,0.00,Wunderground v.1.13,2013-01-15 12:28:00,
2013-01-15 06:33:00,19.7,15.6,30.32,NE,36,3.0,3.0,84,0.00,,,0.00,Wunderground v.1.13,2013-01-15 12:33:00,
2013-01-15 06:43:00,19.8,15.7,30.33,NE,35,3.0,3.0,84,0.00,,,0.00,Wunderground v.1.13,2013-01-15 12:43:00,
2013-01-15 06:53:00,19.9,15.8,30.34,NNE,33,3.0,3.0,84,0.00,,,0.00,Wunderground v.1.13,2013-01-15 12:53:00,
2013-01-15 06:58:00,19.9,15.8,30.34,NNE,33,3.0,3.0,84,0.00,,,0.00,Wunderground v.1.13,2013-01-15 12:58:00,
2013-01-15 07:08:00,20.0,15.9,30.35,North,5,2.0,4.0,84,0.00,,,0.00,Wunderground v.1.13,2013-01-15 13:08:00,
2013-01-15 07:18:00,20.0,15.9,30.35,North,5,2.0,2.0,84,0.00,,,0.00,Wunderground v.1.13,2013-01-15 13:18:00,
2013-01-15 07:23:00,19.9,15.8,30.35,North,360,2.0,2.0,84,0.00,,,0.00,Wunderground v.1.13,2013-01-15 13:23:00,
2013-01-15 07:28:00,19.9,15.6,30.35,North,360,2.0,2.0,83,0.00,,,0.00,Wunderground v.1.13,2013-01-15 13:28:00,
2013-01-15 07:38:00,20.2,16.1,30.35,North,360,2.0,2.0,84,0.00,,,0.00,Wunderground v.1.13,2013-01-15 13:38:00,
2013-01-15 07:48:00,20.6,16.5,30.35,North,360,3.0,5.0,84,0.00,,,0.00,Wunderground v.1.13,2013-01-15 13:48:00,
2013-01-15 07:58:00,20.8,16.5,30.35,North,5,3.0,3.0,83,0.00,,,0.00,Wunderground v.1.13,2013-01-15 13:58:00,
2013-01-15 08:03:00,21.0,16.6,30.35,North,5,4.0,5.0,83,0.00,,,0.00,Wunderground v.1.13,2013-01-15 14:03:00,
2013-01-15 08:13:00,21.2,17.1,30.35,North,5,5.0,5.0,84,0.00,,,0.00,Wunderground v.1.13,2013-01-15 14:13:00,
2013-01-15 08:18:00,21.2,17.1,30.35,North,360,4.0,5.0,84,0.00,,,0.00,Wunderground v.1.13,2013-01-15 14:18:00,
2013-01-15 08:23:00,21.1,17.0,30.34,NNE,17,4.0,5.0,84,0.00,,,0.00,Wunderground v.1.13,2013-01-15 14:23:00,
2013-01-15 08:28:00,21.2,17.1,30.33,North,355,4.0,5.0,84,0.00,,,0.00,Wunderground v.1.13,2013-01-15 14:28:00,
2013-01-15 08:38:00,21.5,17.1,30.34,North,5,5.0,6.0,83,0.00,,,0.00,Wunderground v.1.13,2013-01-15 14:38:00,
2013-01-15 08:48:00,22.0,17.9,30.33,North,5,5.0,5.0,84,0.00,,,0.00,Wunderground v.1.13,2013-01-15 14:48:00,
2013-01-15 08:53:00,22.4,18.0,30.33,North,360,6.0,6.0,83,0.00,,,0.00,Wunderground v.1.13,2013-01-15 14:53:00,
2013-01-15 09:03:00,22.8,18.4,30.33,NE,38,7.0,7.0,83,0.00,,,0.00,Wunderground v.1.13,2013-01-15 15:03:00,
2013-01-15 09:08:00,22.9,18.2,30.31,North,9,6.0,7.0,82,0.00,,,0.00,Wunderground v.1.13,2013-01-15 15:08:00,
2013-01-15 09:18:00,23.4,18.7,30.32,NNE,32,5.0,5.0,82,0.00,,,0.00,Wunderground v.1.13,2013-01-15 15:18:00,
2013-01-15 09:28:00,23.8,18.8,30.32,North,5,4.0,4.0,81,0.00,,,0.00,Wunderground v.1.13,2013-01-15 15:28:00,
2013-01-15 09:33:00,23.9,18.9,30.32,North,10,4.0,4.0,81,0.00,,,0.00,Wunderground v.1.13,2013-01-15 15:33:00,
2013-01-15 09:43:00,23.9,18.6,30.30,NE,45,4.0,4.0,80,0.00,,,0.00,Wunderground v.1.13,2013-01-15 15:43:00,
2013-01-15 09:48:00,24.4,19.4,30.32,NNE,12,4.0,5.0,81,0.00,,,0.00,Wunderground v.1.13,2013-01-15 15:48:00,
2013-01-15 09:58:00,26.0,20.7,30.33,North,5,3.0,3.0,80,0.00,,,0.00,Wunderground v.1.13,2013-01-15 15:58:00,
2013-01-15 10:08:00,26.0,19.8,30.33,NE,35,2.0,2.0,77,0.00,,,0.00,Wunderground v.1.13,2013-01-15 16:08:00,
2013-01-15 10:18:00,26.1,19.9,30.33,NNE,25,2.0,2.0,77,0.00,,,0.00,Wunderground v.1.13,2013-01-15 16:18:00,
2013-01-15 10:28:00,26.0,19.8,30.32,NNE,21,1.0,1.0,77,0.00,,,0.00,Wunderground v.1.13,2013-01-15 16:28:00,
2013-01-15 10:38:00,26.7,20.5,30.30,NNE,30,2.0,5.0,77,0.00,,,0.00,Wunderground v.1.13,2013-01-15 16:38:00,
2013-01-15 10:48:00,26.9,21.0,30.29,NNE,33,1.0,5.0,78,0.00,,,0.00,Wunderground v.1.13,2013-01-15 16:48:00,
2013-01-15 10:58:00,27.2,20.6,30.30,NNE,21,2.0,2.0,76,0.00,,,0.00,Wunderground v.1.13,2013-01-15 16:58:00,
2013-01-15 11:03:00,27.2,20.6,30.30,NNE,21,1.0,1.0,76,0.00,,,0.00,Wunderground v.1.13,2013-01-15 17:03:00,
2013-01-15 11:13:00,27.9,21.0,30.30,NNE,21,1.0,1.0,75,0.00,,,0.00,Wunderground v.1.13,2013-01-15 17:13:00,
2013-01-15 11:23:00,27.6,20.4,30.29,NNE,21,1.0,1.0,74,0.00,,,0.00,Wunderground v.1.13,2013-01-15 17:23:00,
2013-01-15 11:28:00,27.8,20.9,30.28,North,10,2.0,5.0,75,0.00,,,0.00,Wunderground v.1.13,2013-01-15 17:28:00,
2013-01-15 11:33:00,27.8,20.9,30.27,North,360,4.0,6.0,75,0.00,,,0.00,Wunderground v.1.13,2013-01-15 17:33:00,
2013-01-15 11:43:00,27.8,21.2,30.24,North,5,6.0,8.0,76,0.00,,,0.01,Wunderground v.1.13,2013-01-15 17:43:00,
2013-01-15 11:53:00,27.4,20.8,30.22,North,5,8.0,9.0,76,0.00,,,0.01,Wunderground v.1.13,2013-01-15 17:53:00,
2013-01-15 11:58:00,27.1,20.5,30.27,North,360,9.0,9.0,76,0.00,,,0.01,Wunderground v.1.13,2013-01-15 17:58:00,
2013-01-15 12:08:00,27.0,20.7,30.28,NW,304,5.0,6.0,77,0.00,,,0.01,Wunderground v.1.13,2013-01-15 18:08:00,
2013-01-15 12:13:00,27.1,20.5,30.28,North,10,5.0,5.0,76,0.00,,,0.01,Wunderground v.1.13,2013-01-15 18:13:00,
2013-01-15 12:23:00,27.3,20.7,30.29,NNW,337,3.0,3.0,76,0.00,,,0.01,Wunderground v.1.13,2013-01-15 18:23:00,
2013-01-15 12:28:00,27.3,21.0,30.29,NW,317,3.0,4.0,77,0.00,,,0.01,Wunderground v.1.13,2013-01-15 18:28:00,
2013-01-15 12:38:00,26.8,20.6,30.28,NNW,332,5.0,5.0,77,0.00,,,0.01,Wunderground v.1.13,2013-01-15 18:38:00,
2013-01-15 12:43:00,26.8,20.6,30.28,NW,319,5.0,5.0,77,0.00,,,0.01,Wunderground v.1.13,2013-01-15 18:43:00,
2013-01-15 12:53:00,27.0,21.1,30.27,NNW,344,5.0,6.0,78,0.00,,,0.01,Wunderground v.1.13,2013-01-15 18:53:00,
2013-01-15 13:03:00,27.1,20.5,30.28,NNW,339,5.0,7.0,76,0.00,,,0.01,Wunderground v.1.13,2013-01-15 19:03:00,
2013-01-15 13:13:00,27.2,20.6,30.28,North,5,4.0,4.0,76,0.00,,,0.01,Wunderground v.1.13,2013-01-15 19:13:00,
2013-01-15 13:18:00,27.1,20.5,30.28,NNW,330,4.0,5.0,76,0.00,,,0.01,Wunderground v.1.13,2013-01-15 19:18:00,
2013-01-15 13:23:00,27.1,20.8,30.27,NNW,338,5.0,5.0,77,0.00,,,0.01,Wunderground v.1.13,2013-01-15 19:23:00,
2013-01-15 13:33:00,27.2,20.6,30.25,North,355,5.0,5.0,76,0.00,,,0.01,Wunderground v.1.13,2013-01-15 19:33:00,
2013-01-15 13:38:00,27.2,20.6,30.24,North,360,5.0,7.0,76,0.00,,,0.01,Wunderground v.1.13,2013-01-15 19:38:00,
2013-01-15 13:48:00,27.1,20.2,30.26,NNE,19,5.0,5.0,75,0.00,,,0.01,Wunderground v.1.13,2013-01-15 19:48:00,
2013-01-15 13:53:00,27.3,20.7,30.25,NNE,26,4.0,6.0,76,0.00,,,0.01,Wunderground v.1.13,2013-01-15 19:53:00,
2013-01-15 13:58:00,27.2,20.3,30.24,NNE,27,4.0,4.0,75,0.00,,,0.01,Wunderground v.1.13,2013-01-15 19:58:00,
2013-01-15 14:03:00,27.3,20.4,30.22,North,360,4.0,4.0,75,0.00,,,0.01,Wunderground v.1.13,2013-01-15 20:03:00,
2013-01-15 14:08:00,27.5,20.9,30.23,North,350,5.0,5.0,76,0.00,,,0.01,Wunderground v.1.13,2013-01-15 20:08:00,
2013-01-15 14:18:00,27.7,20.8,30.21,North,360,5.0,7.0,75,0.00,,,0.01,Wunderground v.1.13,2013-01-15 20:18:00,
2013-01-15 14:28:00,27.7,20.8,30.20,North,360,6.0,6.0,75,0.00,,,0.01,Wunderground v.1.13,2013-01-15 20:28:00,
2013-01-15 14:33:00,27.6,20.7,30.21,North,355,6.0,7.0,75,0.00,,,0.01,Wunderground v.1.13,2013-01-15 20:33:00,
2013-01-15 14:43:00,27.6,20.7,30.21,North,360,5.0,5.0,75,0.00,,,0.01,Wunderground v.1.13,2013-01-15 20:43:00,
2013-01-15 14:53:00,27.7,20.8,30.23,NNE,19,2.0,2.0,75,0.00,,,0.01,Wunderground v.1.13,2013-01-15 20:53:00,
2013-01-15 14:58:00,27.8,20.9,30.23,NNE,19,2.0,7.0,75,0.00,,,0.01,Wunderground v.1.13,2013-01-15 20:58:00,
2013-01-15 15:08:00,28.0,21.1,30.22,North,349,4.0,4.0,75,0.00,,,0.01,Wunderground v.1.13,2013-01-15 21:08:00,
2013-01-15 15:13:00,27.9,21.0,30.22,North,5,3.0,3.0,75,0.00,,,0.01,Wunderground v.1.13,2013-01-15 21:13:00,
2013-01-15 15:18:00,27.9,20.7,30.22,NNE,17,3.0,4.0,74,0.00,,,0.01,Wunderground v.1.13,2013-01-15 21:18:00,
2013-01-15 15:23:00,27.9,20.7,30.23,NNE,19,3.0,5.0,74,0.00,,,0.01,Wunderground v.1.13,2013-01-15 21:23:00,
2013-01-15 15:33:00,27.8,20.6,30.23,NNE,16,4.0,4.0,74,0.00,,,0.01,Wunderground v.1.13,2013-01-15 21:33:00,
2013-01-15 15:38:00,27.8,20.6,30.22,NNE,19,4.0,4.0,74,0.00,,,0.01,Wunderground v.1.13,2013-01-15 21:38:00,
2013-01-15 15:43:00,27.9,20.7,30.22,NNW,348,4.0,4.0,74,0.00,,,0.01,Wunderground v.1.13,2013-01-15 21:43:00,
2013-01-15 15:48:00,28.0,21.1,30.21,North,360,4.0,4.0,75,0.00,,,0.01,Wunderground v.1.13,2013-01-15 21:48:00,
2013-01-15 15:58:00,27.9,21.0,30.21,NNE,19,3.0,3.0,75,0.00,,,0.01,Wunderground v.1.13,2013-01-15 21:58:00,
2013-01-15 16:08:00,27.9,21.0,30.21,North,5,3.0,4.0,75,0.00,,,0.01,Wunderground v.1.13,2013-01-15 22:08:00,
2013-01-15 16:13:00,27.9,21.0,30.20,North,360,3.0,3.0,75,0.00,,,0.01,Wunderground v.1.13,2013-01-15 22:13:00,
2013-01-15 16:23:00,27.8,20.9,30.20,North,5,4.0,6.0,75,0.00,,,0.01,Wunderground v.1.13,2013-01-15 22:23:00,
2013-01-15 16:28:00,27.9,21.0,30.20,North,5,5.0,5.0,75,0.00,,,0.01,Wunderground v.1.13,2013-01-15 22:28:00,
2013-01-15 16:38:00,27.9,21.3,30.19,NE,37,5.0,7.0,76,0.00,,,0.01,Wunderground v.1.13,2013-01-15 22:38:00,
2013-01-15 16:48:00,27.9,21.6,30.20,NNE,15,5.0,5.0,77,0.00,,,0.01,Wunderground v.1.13,2013-01-15 22:48:00,
2013-01-15 16:58:00,27.9,21.6,30.20,North,355,4.0,5.0,77,0.00,,,0.01,Wunderground v.1.13,2013-01-15 22:58:00,
2013-01-15 17:03:00,27.9,21.3,30.21,North,350,5.0,5.0,76,0.00,,,0.01,Wunderground v.1.13,2013-01-15 23:03:00,
2013-01-15 17:08:00,27.9,21.6,30.22,North,360,5.0,8.0,77,0.00,,,0.01,Wunderground v.1.13,2013-01-15 23:08:00,
2013-01-15 17:13:00,27.9,21.3,30.21,North,360,5.0,5.0,76,0.00,,,0.01,Wunderground v.1.13,2013-01-15 23:13:00,
2013-01-15 17:18:00,27.9,21.3,30.21,North,360,5.0,5.0,76,0.00,,,0.01,Wunderground v.1.13,2013-01-15 23:18:00,
2013-01-15 17:28:00,27.8,21.2,30.19,North,360,3.0,3.0,76,0.00,,,0.01,Wunderground v.1.13,2013-01-15 23:28:00,
2013-01-15 17:33:00,27.8,21.2,30.19,North,360,2.0,2.0,76,0.00,,,0.01,Wunderground v.1.13,2013-01-15 23:33:00,
2013-01-15 17:38:00,27.9,21.3,30.19,North,360,0.0,0.0,76,0.00,,,0.01,Wunderground v.1.13,2013-01-15 23:38:00,
2013-01-15 17:43:00,27.9,21.3,30.18,North,360,0.0,0.0,76,0.00,,,0.01,Wunderground v.1.13,2013-01-15 23:43:00,
2013-01-15 17:48:00,27.9,21.3,30.19,NNE,22,0.0,0.0,76,0.00,,,0.01,Wunderground v.1.13,2013-01-15 23:48:00,
2013-01-15 17:58:00,27.8,21.2,30.19,NNE,23,0.0,0.0,76,0.00,,,0.01,Wunderground v.1.13,2013-01-15 23:58:00,
2013-01-15 18:03:00,27.9,21.3,30.18,NNE,23,0.0,0.0,76,0.00,,,0.01,Wunderground v.1.13,2013-01-16 00:03:00,
2013-01-15 18:08:00,27.9,21.3,30.19,NNE,23,0.0,0.0,76,0.00,,,0.01,Wunderground v.1.13,2013-01-16 00:08:00,
2013-01-15 18:18:00,27.9,21.3,30.19,NNE,23,0.0,0.0,76,0.00,,,0.01,Wunderground v.1.13,2013-01-16 00:18:00,
2013-01-15 18:28:00,28.1,21.5,30.18,North,355,0.0,0.0,76,0.00,,,0.01,Wunderground v.1.13,2013-01-16 00:28:00,
2013-01-15 18:33:00,28.1,21.5,30.18,North,355,0.0,0.0,76,0.00,,,0.01,Wunderground v.1.13,2013-01-16 00:33:00,
2013-01-15 18:38:00,28.1,21.8,30.19,NNE,26,0.0,0.0,77,0.00,,,0.01,Wunderground v.1.13,2013-01-16 00:38:00,
2013-01-15 18:43:00,28.1,21.8,30.19,North,9,0.0,0.0,77,0.00,,,0.01,Wunderground v.1.13,2013-01-16 00:43:00,
2013-01-15 18:48:00,28.1,21.8,30.19,NNE,25,0.0,0.0,77,0.00,,,0.01,Wunderground v.1.13,2013-01-16 00:48:00,
2013-01-15 18:58:00,28.2,21.9,30.18,NNW,332,0.0,0.0,77,0.00,,,0.01,Wunderground v.1.13,2013-01-16 00:58:00,
2013-01-15 19:08:00,28.2,21.9,30.18,North,360,0.0,0.0,77,0.00,,,0.01,Wunderground v.1.13,2013-01-16 01:08:00,
2013-01-15 19:18:00,28.2,21.9,30.19,North,360,0.0,0.0,77,0.00,,,0.01,Wunderground v.1.13,2013-01-16 01:18:00,
2013-01-15 19:23:00,28.2,21.9,30.18,North,360,0.0,0.0,77,0.00,,,0.01,Wunderground v.1.13,2013-01-16 01:23:00,
2013-01-15 19:28:00,28.2,21.9,30.18,North,355,0.0,0.0,77,0.00,,,0.01,Wunderground v.1.13,2013-01-16 01:28:00,
2013-01-15 19:38:00,28.2,21.9,30.18,NNW,341,0.0,0.0,77,0.00,,,0.01,Wunderground v.1.13,2013-01-16 01:38:00,
2013-01-15 19:43:00,28.2,21.9,30.18,NNW,341,0.0,0.0,77,0.00,,,0.01,Wunderground v.1.13,2013-01-16 01:43:00,
2013-01-15 19:48:00,28.3,22.0,30.18,NNW,347,0.0,0.0,77,0.00,,,0.01,Wunderground v.1.13,2013-01-16 01:48:00,
2013-01-15 19:58:00,28.3,22.0,30.18,NNW,345,0.0,0.0,77,0.00,,,0.01,Wunderground v.1.13,2013-01-16 01:58:00,
2013-01-15 20:08:00,28.3,22.0,30.18,North,355,0.0,0.0,77,0.00,,,0.01,Wunderground v.1.13,2013-01-16 02:08:00,
2013-01-15 20:13:00,28.4,22.1,30.17,North,350,0.0,0.0,77,0.00,,,0.01,Wunderground v.1.13,2013-01-16 02:13:00,
2013-01-15 20:23:00,28.4,22.1,30.16,North,5,0.0,0.0,77,0.00,,,0.01,Wunderground v.1.13,2013-01-16 02:23:00,
2013-01-15 20:28:00,28.4,22.1,30.15,NNW,345,0.0,0.0,77,0.00,,,0.01,Wunderground v.1.13,2013-01-16 02:28:00,
2013-01-15 20:33:00,28.4,22.4,30.16,NNW,346,0.0,1.0,78,0.00,,,0.01,Wunderground v.1.13,2013-01-16 02:33:00,
2013-01-15 20:43:00,28.4,22.1,30.16,North,355,0.0,1.0,77,0.00,,,0.01,Wunderground v.1.13,2013-01-16 02:43:00,
2013-01-15 20:48:00,28.4,22.1,30.16,North,355,0.0,0.0,77,0.00,,,0.01,Wunderground v.1.13,2013-01-16 02:48:00,
2013-01-15 20:53:00,28.4,22.1,30.16,NNE,19,0.0,0.0,77,0.00,,,0.01,Wunderground v.1.13,2013-01-16 02:53:00,
2013-01-15 20:58:00,28.4,22.1,30.16,NNE,18,0.0,0.0,77,0.00,,,0.01,Wunderground v.1.13,2013-01-16 02:58:00,
2013-01-15 21:08:00,28.4,22.1,30.16,North,9,0.0,0.0,77,0.00,,,0.01,Wunderground v.1.13,2013-01-16 03:08:00,
2013-01-15 21:13:00,28.4,22.1,30.16,North,350,0.0,0.0,77,0.00,,,0.01,Wunderground v.1.13,2013-01-16 03:13:00,
2013-01-15 21:23:00,28.5,22.2,30.16,North,350,0.0,0.0,77,0.00,,,0.01,Wunderground v.1.13,2013-01-16 03:23:00,
2013-01-15 21:33:00,28.5,22.2,30.16,North,350,0.0,0.0,77,0.00,,,0.01,Wunderground v.1.13,2013-01-16 03:33:00,
2013-01-15 21:38:00,28.6,22.3,30.16,North,349,0.0,0.0,77,0.00,,,0.01,Wunderground v.1.13,2013-01-16 03:38:00,
2013-01-15 21:43:00,28.6,22.3,30.16,North,350,0.0,0.0,77,0.00,,,0.01,Wunderground v.1.13,2013-01-16 03:43:00,
2013-01-15 21:53:00,28.6,22.3,30.14,NNW,336,0.0,1.0,77,0.00,,,0.01,Wunderground v.1.13,2013-01-16 03:53:00,
2013-01-15 21:58:00,28.6,22.3,30.15,NNW,331,0.0,0.0,77,0.00,,,0.01,Wunderground v.1.13,2013-01-16 03:58:00,
2013-01-15 22:08:00,28.6,22.3,30.15,NNW,331,0.0,0.0,77,0.00,,,0.01,Wunderground v.1.13,2013-01-16 04:08:00,
2013-01-15 22:18:00,28.6,22.3,30.15,NNW,348,0.0,0.0,77,0.00,,,0.01,Wunderground v.1.13,2013-01-16 04:18:00,
2013-01-15 22:23:00,28.6,22.3,30.15,NNW,344,0.0,0.0,77,0.00,,,0.01,Wunderground v.1.13,2013-01-16 04:23:00,
2013-01-15 22:28:00,28.7,22.4,30.15,NNW,333,0.0,0.0,77,0.00,,,0.01,Wunderground v.1.13,2013-01-16 04:28:00,
2013-01-15 22:33:00,28.7,22.4,30.15,NNW,333,0.0,0.0,77,0.00,,,0.01,Wunderground v.1.13,2013-01-16 04:33:00,
2013-01-15 22:43:00,28.7,22.7,30.16,NW,325,0.0,0.0,78,0.00,,,0.01,Wunderground v.1.13,2013-01-16 04:43:00,
2013-01-15 22:53:00,28.8,22.5,30.15,NW,325,0.0,1.0,77,0.00,,,0.01,Wunderground v.1.13,2013-01-16 04:53:00,
2013-01-15 23:03:00,28.8,22.8,30.14,NNW,327,0.0,2.0,78,0.00,,,0.01,Wunderground v.1.13,2013-01-16 05:03:00,
2013-01-15 23:08:00,28.8,22.8,30.14,NNW,329,0.0,0.0,78,0.00,,,0.01,Wunderground v.1.13,2013-01-16 05:08:00,
2013-01-15 23:18:00,28.8,22.8,30.13,NNW,330,1.0,1.0,78,0.00,,,0.01,Wunderground v.1.13,2013-01-16 05:18:00,
2013-01-15 23:23:00,28.8,23.1,30.13,NNE,17,0.0,0.0,79,0.00,,,0.01,Wunderground v.1.13,2013-01-16 05:23:00,
2013-01-15 23:28:00,28.8,23.1,30.12,NNE,15,0.0,0.0,79,0.00,,,0.01,Wunderground v.1.13,2013-01-16 05:28:00,
2013-01-15 23:38:00,28.7,22.7,30.11,NNE,17,0.0,0.0,78,0.00,,,0.01,Wunderground v.1.13,2013-01-16 05:38:00,
2013-01-15 23:43:00,28.6,22.6,30.11,NNE,17,0.0,0.0,78,0.00,,,0.01,Wunderground v.1.13,2013-01-16 05:43:00,
2013-01-15 23:53:00,28.6,22.6,30.11,NNE,17,0.0,0.0,78,0.00,,,0.01,Wunderground v.1.13,2013-01-16 05:53:00,